sensor_id;sensor_type;location;lat;lon;timestamp;P1;durP1;ratioP1;P2;durP2;ratioP2
12038;SDS011;6080;48.818;9.526;2023-05-15T03:02:13;10.77;;;10.00;;
12038;SDS011;6080;48.818;9.526;2023-05-15T03:04:39;14.07;;;12.87;;
12038;SDS011;6080;48.818;9.526;2023-05-15T03:07:04;28.83;;;12.80;;
12038;SDS011;6080;48.818;9.526;2023-05-15T03:09:30;11.57;;;10.83;;
12038;SDS011;6080;48.818;9.526;2023-05-15T03:11:56;12.47;;;11.13;;
12038;SDS011;6080;48.818;9.526;2023-05-15T03:14:21;12.27;;;11.47;;
12038;SDS011;6080;48.818;9.526;2023-05-15T03:16:47;13.40;;;11.67;;
12038;SDS011;6080;48.818;9.526;2023-05-15T03:19:13;10.43;;;9.40;;
12038;SDS011;6080;48.818;9.526;2023-05-15T03:21:39;10.97;;;9.97;;
12038;SDS011;6080;48.818;9.526;2023-05-15T03:24:05;12.40;;;11.53;;
12038;SDS011;6080;48.818;9.526;2023-05-15T03:26:31;11.17;;;10.37;;
12038;SDS011;6080;48.818;9.526;2023-05-15T03:28:56;12.27;;;11.37;;
12038;SDS011;6080;48.818;9.526;2023-05-15T03:31:22;11.97;;;11.07;;
12038;SDS011;6080;48.818;9.526;2023-05-15T03:33:48;12.10;;;11.10;;
12038;SDS011;6080;48.818;9.526;2023-05-15T03:36:15;11.50;;;10.53;;
12038;SDS011;6080;48.818;9.526;2023-05-15T03:38:41;11.77;;;9.77;;
12038;SDS011;6080;48.818;9.526;2023-05-15T03:41:08;10.70;;;9.93;;
12038;SDS011;6080;48.818;9.526;2023-05-15T03:43:34;9.40;;;8.60;;
12038;SDS011;6080;48.818;9.526;2023-05-15T03:46:00;10.43;;;9.63;;
12038;SDS011;6080;48.818;9.526;2023-05-15T03:48:26;9.27;;;8.60;;
12038;SDS011;6080;48.818;9.526;2023-05-15T03:50:52;10.80;;;9.73;;
12038;SDS011;6080;48.818;9.526;2023-05-15T03:53:18;10.13;;;9.33;;
12038;SDS011;6080;48.818;9.526;2023-05-15T03:55:43;9.80;;;8.80;;
12038;SDS011;6080;48.818;9.526;2023-05-15T03:58:09;9.37;;;8.57;;
12038;SDS011;6080;48.818;9.526;2023-05-15T04:00:35;9.80;;;8.70;;
12038;SDS011;6080;48.818;9.526;2023-05-15T04:03:01;12.13;;;11.17;;
12038;SDS011;6080;48.818;9.526;2023-05-15T04:05:26;17.13;;;15.93;;
12038;SDS011;6080;48.818;9.526;2023-05-15T04:07:52;18.77;;;17.37;;
12038;SDS011;6080;48.818;9.526;2023-05-15T04:10:18;15.93;;;14.63;;
12038;SDS011;6080;48.818;9.526;2023-05-15T04:12:44;10.87;;;9.90;;
12038;SDS011;6080;48.818;9.526;2023-05-15T04:15:14;11.87;;;10.97;;
12038;SDS011;6080;48.818;9.526;2023-05-15T04:17:51;11.03;;;10.03;;
12038;SDS011;6080;48.818;9.526;2023-05-15T04:20:19;10.03;;;9.07;;
12038;SDS011;6080;48.818;9.526;2023-05-15T04:22:47;10.97;;;9.70;;
12038;SDS011;6080;48.818;9.526;2023-05-15T04:25:14;9.30;;;8.47;;
12038;SDS011;6080;48.818;9.526;2023-05-15T04:27:40;10.27;;;8.23;;
12038;SDS011;6080;48.818;9.526;2023-05-15T04:30:07;9.87;;;8.90;;
12038;SDS011;6080;48.818;9.526;2023-05-15T04:32:34;8.87;;;8.03;;
12038;SDS011;6080;48.818;9.526;2023-05-15T04:35:00;9.13;;;8.43;;
12038;SDS011;6080;48.818;9.526;2023-05-15T04:37:29;10.83;;;8.40;;
12038;SDS011;6080;48.818;9.526;2023-05-15T04:39:55;12.77;;;8.50;;
12038;SDS011;6080;48.818;9.526;2023-05-15T04:42:21;8.40;;;7.70;;
12038;SDS011;6080;48.818;9.526;2023-05-15T04:44:47;9.43;;;8.53;;
12038;SDS011;6080;48.818;9.526;2023-05-15T04:47:13;9.57;;;8.63;;
12038;SDS011;6080;48.818;9.526;2023-05-15T04:49:42;8.60;;;7.90;;
12038;SDS011;6080;48.818;9.526;2023-05-15T04:52:08;9.17;;;8.20;;
12038;SDS011;6080;48.818;9.526;2023-05-15T04:54:33;10.50;;;8.67;;
12038;SDS011;6080;48.818;9.526;2023-05-15T04:57:01;10.23;;;9.23;;
12038;SDS011;6080;48.818;9.526;2023-05-15T04:59:26;9.73;;;8.93;;
12038;SDS011;6080;48.818;9.526;2023-05-15T05:01:53;10.67;;;9.77;;
12038;SDS011;6080;48.818;9.526;2023-05-15T05:04:18;10.47;;;9.47;;
12038;SDS011;6080;48.818;9.526;2023-05-15T05:06:45;12.63;;;9.47;;
12038;SDS011;6080;48.818;9.526;2023-05-15T05:09:12;12.63;;;10.83;;
12038;SDS011;6080;48.818;9.526;2023-05-15T05:11:38;10.93;;;10.03;;
12038;SDS011;6080;48.818;9.526;2023-05-15T05:14:10;11.00;;;9.90;;
12038;SDS011;6080;48.818;9.526;2023-05-15T05:16:36;20.93;;;19.57;;
12038;SDS011;6080;48.818;9.526;2023-05-15T05:19:02;17.30;;;15.63;;
12038;SDS011;6080;48.818;9.526;2023-05-15T05:21:29;13.67;;;12.43;;
12038;SDS011;6080;48.818;9.526;2023-05-15T05:23:55;11.63;;;10.73;;
12038;SDS011;6080;48.818;9.526;2023-05-15T05:26:20;9.80;;;9.00;;
12038;SDS011;6080;48.818;9.526;2023-05-15T05:28:46;9.77;;;8.90;;
12038;SDS011;6080;48.818;9.526;2023-05-15T05:31:12;17.70;;;16.47;;
12038;SDS011;6080;48.818;9.526;2023-05-15T05:33:39;44.93;;;42.10;;
12038;SDS011;6080;48.818;9.526;2023-05-15T05:36:05;38.57;;;35.90;;
12038;SDS011;6080;48.818;9.526;2023-05-15T05:38:31;21.70;;;20.30;;
12038;SDS011;6080;48.818;9.526;2023-05-15T05:40:57;16.40;;;15.10;;
12038;SDS011;6080;48.818;9.526;2023-05-15T05:43:26;10.47;;;9.00;;
12038;SDS011;6080;48.818;9.526;2023-05-15T05:45:52;9.90;;;8.47;;
12038;SDS011;6080;48.818;9.526;2023-05-15T05:48:18;9.37;;;7.73;;
12038;SDS011;6080;48.818;9.526;2023-05-15T05:50:43;11.67;;;10.80;;
12038;SDS011;6080;48.818;9.526;2023-05-15T05:53:09;46.20;;;43.30;;
12038;SDS011;6080;48.818;9.526;2023-05-15T05:55:35;60.37;;;56.87;;
12038;SDS011;6080;48.818;9.526;2023-05-15T05:58:01;41.40;;;38.90;;
12038;SDS011;6080;48.818;9.526;2023-05-15T06:00:27;19.07;;;17.87;;
12038;SDS011;6080;48.818;9.526;2023-05-15T06:02:54;13.37;;;12.27;;
12038;SDS011;6080;48.818;9.526;2023-05-15T06:05:22;16.80;;;15.53;;
12038;SDS011;6080;48.818;9.526;2023-05-15T06:07:49;17.73;;;16.50;;
12038;SDS011;6080;48.818;9.526;2023-05-15T06:10:15;19.37;;;17.87;;
12038;SDS011;6080;48.818;9.526;2023-05-15T06:12:41;17.63;;;16.33;;
12038;SDS011;6080;48.818;9.526;2023-05-15T06:15:07;15.67;;;14.23;;
12038;SDS011;6080;48.818;9.526;2023-05-15T06:17:33;15.73;;;14.43;;
12038;SDS011;6080;48.818;9.526;2023-05-15T06:19:58;20.13;;;18.83;;
12038;SDS011;6080;48.818;9.526;2023-05-15T06:22:24;23.00;;;21.40;;
12038;SDS011;6080;48.818;9.526;2023-05-15T06:24:50;25.37;;;23.50;;
12038;SDS011;6080;48.818;9.526;2023-05-15T06:27:16;21.40;;;19.70;;
12038;SDS011;6080;48.818;9.526;2023-05-15T06:29:42;15.87;;;14.67;;
12038;SDS011;6080;48.818;9.526;2023-05-15T06:32:07;14.17;;;12.90;;
12038;SDS011;6080;48.818;9.526;2023-05-15T06:34:33;13.77;;;11.77;;
12038;SDS011;6080;48.818;9.526;2023-05-15T06:36:59;13.87;;;12.57;;
12038;SDS011;6080;48.818;9.526;2023-05-15T06:39:26;19.77;;;18.20;;
12038;SDS011;6080;48.818;9.526;2023-05-15T06:41:51;54.53;;;51.63;;
12038;SDS011;6080;48.818;9.526;2023-05-15T06:44:22;47.27;;;44.67;;
12038;SDS011;6080;48.818;9.526;2023-05-15T06:46:48;18.87;;;17.63;;
12038;SDS011;6080;48.818;9.526;2023-05-15T06:49:13;10.55;;;9.65;;
12038;SDS011;6080;48.818;9.526;2023-05-15T06:51:39;13.25;;;12.18;;
12038;SDS011;6080;48.818;9.526;2023-05-15T06:54:05;18.15;;;16.85;;
12038;SDS011;6080;48.818;9.526;2023-05-15T06:56:31;12.10;;;11.30;;
12038;SDS011;6080;48.818;9.526;2023-05-15T06:58:57;11.10;;;10.30;;
12038;SDS011;6080;48.818;9.526;2023-05-15T07:01:22;11.38;;;10.48;;
12038;SDS011;6080;48.818;9.526;2023-05-15T07:03:48;9.52;;;8.77;;
12038;SDS011;6080;48.818;9.526;2023-05-15T07:06:14;13.23;;;12.13;;
12038;SDS011;6080;48.818;9.526;2023-05-15T07:08:40;14.57;;;13.63;;
12038;SDS011;6080;48.818;9.526;2023-05-15T07:11:06;16.27;;;15.02;;
12038;SDS011;6080;48.818;9.526;2023-05-15T07:13:32;14.48;;;13.48;;
12038;SDS011;6080;48.818;9.526;2023-05-15T07:15:57;11.27;;;10.43;;
12038;SDS011;6080;48.818;9.526;2023-05-15T07:18:23;9.05;;;8.35;;
12038;SDS011;6080;48.818;9.526;2023-05-15T07:20:49;10.60;;;9.70;;
12038;SDS011;6080;48.818;9.526;2023-05-15T07:23:15;11.30;;;10.30;;
12038;SDS011;6080;48.818;9.526;2023-05-15T07:25:40;16.05;;;14.93;;
12038;SDS011;6080;48.818;9.526;2023-05-15T07:28:06;16.20;;;15.00;;
12038;SDS011;6080;48.818;9.526;2023-05-15T07:30:32;11.93;;;11.00;;
12038;SDS011;6080;48.818;9.526;2023-05-15T07:32:58;8.82;;;8.13;;
12038;SDS011;6080;48.818;9.526;2023-05-15T07:35:24;7.75;;;7.18;;
12038;SDS011;6080;48.818;9.526;2023-05-15T07:37:50;10.00;;;9.20;;
12038;SDS011;6080;48.818;9.526;2023-05-15T07:40:15;14.65;;;13.75;;
12038;SDS011;6080;48.818;9.526;2023-05-15T07:42:44;14.85;;;13.90;;
12038;SDS011;6080;48.818;9.526;2023-05-15T07:45:11;9.77;;;9.15;;
12038;SDS011;6080;48.818;9.526;2023-05-15T07:47:36;8.40;;;7.10;;
12038;SDS011;6080;48.818;9.526;2023-05-15T07:50:02;8.45;;;7.75;;
12038;SDS011;6080;48.818;9.526;2023-05-15T07:52:28;8.68;;;7.88;;
12038;SDS011;6080;48.818;9.526;2023-05-15T07:54:54;15.05;;;14.05;;
12038;SDS011;6080;48.818;9.526;2023-05-15T07:57:20;18.90;;;17.77;;
12038;SDS011;6080;48.818;9.526;2023-05-15T07:59:46;11.23;;;10.55;;
12038;SDS011;6080;48.818;9.526;2023-05-15T08:02:12;12.73;;;11.90;;
12038;SDS011;6080;48.818;9.526;2023-05-15T08:04:37;7.85;;;7.22;;
12038;SDS011;6080;48.818;9.526;2023-05-15T08:07:03;6.15;;;5.75;;
12038;SDS011;6080;48.818;9.526;2023-05-15T08:09:30;7.38;;;6.88;;
12038;SDS011;6080;48.818;9.526;2023-05-15T08:12:02;8.40;;;7.72;;
12038;SDS011;6080;48.818;9.526;2023-05-15T08:14:41;6.53;;;6.03;;
12038;SDS011;6080;48.818;9.526;2023-05-15T08:17:07;7.65;;;7.00;;
12038;SDS011;6080;48.818;9.526;2023-05-15T08:19:33;8.00;;;7.50;;
12038;SDS011;6080;48.818;9.526;2023-05-15T08:21:58;8.10;;;7.60;;
12038;SDS011;6080;48.818;9.526;2023-05-15T08:24:24;9.88;;;8.70;;
12038;SDS011;6080;48.818;9.526;2023-05-15T08:26:50;10.77;;;10.20;;
12038;SDS011;6080;48.818;9.526;2023-05-15T08:29:16;9.20;;;8.60;;
12038;SDS011;6080;48.818;9.526;2023-05-15T08:31:41;8.02;;;7.53;;
12038;SDS011;6080;48.818;9.526;2023-05-15T08:34:07;8.65;;;7.63;;
12038;SDS011;6080;48.818;9.526;2023-05-15T08:36:33;9.32;;;8.60;;
12038;SDS011;6080;48.818;9.526;2023-05-15T08:38:59;9.85;;;9.25;;
12038;SDS011;6080;48.818;9.526;2023-05-15T08:41:31;8.35;;;7.75;;
12038;SDS011;6080;48.818;9.526;2023-05-15T08:44:02;9.65;;;8.80;;
12038;SDS011;6080;48.818;9.526;2023-05-15T08:46:29;9.57;;;8.88;;
12038;SDS011;6080;48.818;9.526;2023-05-15T08:48:57;9.35;;;8.85;;
12038;SDS011;6080;48.818;9.526;2023-05-15T08:51:25;9.45;;;8.85;;
12038;SDS011;6080;48.818;9.526;2023-05-15T08:53:51;11.18;;;10.48;;
12038;SDS011;6080;48.818;9.526;2023-05-15T08:56:17;10.73;;;10.10;;
12038;SDS011;6080;48.818;9.526;2023-05-15T08:58:43;12.13;;;11.23;;
12038;SDS011;6080;48.818;9.526;2023-05-15T09:01:11;9.52;;;8.82;;
12038;SDS011;6080;48.818;9.526;2023-05-15T09:03:38;7.82;;;7.30;;
12038;SDS011;6080;48.818;9.526;2023-05-15T09:06:05;10.07;;;7.10;;
12038;SDS011;6080;48.818;9.526;2023-05-15T09:08:31;9.32;;;8.60;;
12038;SDS011;6080;48.818;9.526;2023-05-15T09:10:58;9.65;;;9.05;;
12038;SDS011;6080;48.818;9.526;2023-05-15T09:13:26;7.88;;;7.22;;
12038;SDS011;6080;48.818;9.526;2023-05-15T09:15:52;6.90;;;6.30;;
12038;SDS011;6080;48.818;9.526;2023-05-15T09:18:18;7.53;;;7.10;;
12038;SDS011;6080;48.818;9.526;2023-05-15T09:20:44;10.82;;;10.02;;
12038;SDS011;6080;48.818;9.526;2023-05-15T09:23:23;7.10;;;6.70;;
12038;SDS011;6080;48.818;9.526;2023-05-15T09:25:51;8.75;;;8.15;;
12038;SDS011;6080;48.818;9.526;2023-05-15T09:28:26;7.68;;;7.18;;
12038;SDS011;6080;48.818;9.526;2023-05-15T09:30:59;6.47;;;5.88;;
12038;SDS011;6080;48.818;9.526;2023-05-15T09:33:30;9.25;;;8.75;;
12038;SDS011;6080;48.818;9.526;2023-05-15T09:35:57;8.48;;;7.88;;
12038;SDS011;6080;48.818;9.526;2023-05-15T09:38:23;6.30;;;6.00;;
12038;SDS011;6080;48.818;9.526;2023-05-15T09:40:49;9.82;;;9.00;;
12038;SDS011;6080;48.818;9.526;2023-05-15T09:43:15;17.50;;;16.38;;
12038;SDS011;6080;48.818;9.526;2023-05-15T09:45:40;27.77;;;26.17;;
12038;SDS011;6080;48.818;9.526;2023-05-15T09:48:07;26.38;;;24.90;;
12038;SDS011;6080;48.818;9.526;2023-05-15T09:50:36;10.13;;;9.57;;
12038;SDS011;6080;48.818;9.526;2023-05-15T09:53:03;34.47;;;32.80;;
12038;SDS011;6080;48.818;9.526;2023-05-15T09:55:30;38.92;;;36.80;;
12038;SDS011;6080;48.818;9.526;2023-05-15T09:58:12;29.20;;;27.65;;
12038;SDS011;6080;48.818;9.526;2023-05-15T10:00:40;9.48;;;8.80;;
12038;SDS011;6080;48.818;9.526;2023-05-15T10:03:07;6.97;;;6.47;;
12038;SDS011;6080;48.818;9.526;2023-05-15T10:05:34;7.18;;;6.55;;
12038;SDS011;6080;48.818;9.526;2023-05-15T10:08:00;7.13;;;6.68;;
12038;SDS011;6080;48.818;9.526;2023-05-15T10:10:27;6.65;;;6.18;;
12038;SDS011;6080;48.818;9.526;2023-05-15T10:12:55;19.88;;;18.77;;
12038;SDS011;6080;48.818;9.526;2023-05-15T10:15:27;36.97;;;35.00;;
12038;SDS011;6080;48.818;9.526;2023-05-15T10:17:54;36.53;;;34.45;;
12038;SDS011;6080;48.818;9.526;2023-05-15T10:20:23;81.30;;;77.13;;
12038;SDS011;6080;48.818;9.526;2023-05-15T10:22:51;69.50;;;66.07;;
12038;SDS011;6080;48.818;9.526;2023-05-15T10:27:53;29.25;;;27.25;;
12038;SDS011;6080;48.818;9.526;2023-05-15T10:30:19;18.17;;;17.27;;
12038;SDS011;6080;48.818;9.526;2023-05-15T10:32:47;52.83;;;50.15;;
12038;SDS011;6080;48.818;9.526;2023-05-15T10:35:14;85.45;;;81.20;;
12038;SDS011;6080;48.818;9.526;2023-05-15T10:37:40;18.25;;;17.02;;
12038;SDS011;6080;48.818;9.526;2023-05-15T10:40:08;7.80;;;7.40;;
12038;SDS011;6080;48.818;9.526;2023-05-15T10:42:35;17.75;;;16.65;;
12038;SDS011;6080;48.818;9.526;2023-05-15T10:45:01;48.17;;;45.78;;
12038;SDS011;6080;48.818;9.526;2023-05-15T10:47:30;69.18;;;65.80;;
12038;SDS011;6080;48.818;9.526;2023-05-15T10:49:57;68.90;;;65.45;;
12038;SDS011;6080;48.818;9.526;2023-05-15T10:52:23;70.88;;;67.13;;
12038;SDS011;6080;48.818;9.526;2023-05-15T10:54:51;83.13;;;78.85;;
12038;SDS011;6080;48.818;9.526;2023-05-15T10:57:19;62.88;;;59.67;;
12038;SDS011;6080;48.818;9.526;2023-05-15T10:59:46;58.95;;;55.97;;
12038;SDS011;6080;48.818;9.526;2023-05-15T11:02:27;42.80;;;40.60;;
12038;SDS011;6080;48.818;9.526;2023-05-15T11:07:21;44.58;;;42.08;;
12038;SDS011;6080;48.818;9.526;2023-05-15T11:09:48;39.33;;;36.83;;
12038;SDS011;6080;48.818;9.526;2023-05-15T11:12:14;48.85;;;46.42;;
12038;SDS011;6080;48.818;9.526;2023-05-15T11:17:19;80.65;;;76.60;;
12038;SDS011;6080;48.818;9.526;2023-05-15T11:35:17;33.63;;;31.65;;
12038;SDS011;6080;48.818;9.526;2023-05-15T11:37:50;11.45;;;10.85;;
12038;SDS011;6080;48.818;9.526;2023-05-15T11:40:22;23.60;;;22.15;;
12038;SDS011;6080;48.818;9.526;2023-05-15T11:43:06;19.00;;;18.00;;
12038;SDS011;6080;48.818;9.526;2023-05-15T11:45:41;38.38;;;36.25;;
12038;SDS011;6080;48.818;9.526;2023-05-15T11:48:11;7.32;;;6.70;;
12038;SDS011;6080;48.818;9.526;2023-05-15T11:50:40;5.80;;;5.40;;
12038;SDS011;6080;48.818;9.526;2023-05-15T11:53:07;5.20;;;4.85;;
12038;SDS011;6080;48.818;9.526;2023-05-15T11:55:35;5.22;;;4.82;;
12038;SDS011;6080;48.818;9.526;2023-05-15T11:58:02;5.97;;;5.57;;
12038;SDS011;6080;48.818;9.526;2023-05-15T12:00:29;5.90;;;5.45;;
12038;SDS011;6080;48.818;9.526;2023-05-15T12:02:56;4.68;;;3.92;;
12038;SDS011;6080;48.818;9.526;2023-05-15T12:05:21;4.15;;;3.90;;
12038;SDS011;6080;48.818;9.526;2023-05-15T12:07:48;5.65;;;5.25;;
12038;SDS011;6080;48.818;9.526;2023-05-15T12:10:14;7.57;;;7.25;;
12038;SDS011;6080;48.818;9.526;2023-05-15T12:12:41;9.98;;;9.48;;
12038;SDS011;6080;48.818;9.526;2023-05-15T12:15:11;10.52;;;10.07;;
12038;SDS011;6080;48.818;9.526;2023-05-15T12:17:39;15.20;;;14.30;;
12038;SDS011;6080;48.818;9.526;2023-05-15T12:20:15;17.80;;;16.73;;
12038;SDS011;6080;48.818;9.526;2023-05-15T12:22:42;17.30;;;16.20;;
12038;SDS011;6080;48.818;9.526;2023-05-15T12:25:09;17.38;;;16.33;;
12038;SDS011;6080;48.818;9.526;2023-05-15T12:27:36;15.40;;;14.40;;
12038;SDS011;6080;48.818;9.526;2023-05-15T12:30:03;10.73;;;10.10;;
12038;SDS011;6080;48.818;9.526;2023-05-15T12:32:31;7.15;;;6.78;;
12038;SDS011;6080;48.818;9.526;2023-05-15T12:34:59;4.05;;;3.67;;
12038;SDS011;6080;48.818;9.526;2023-05-15T12:37:26;3.53;;;3.33;;
12038;SDS011;6080;48.818;9.526;2023-05-15T12:39:56;5.20;;;4.97;;
12038;SDS011;6080;48.818;9.526;2023-05-15T12:42:25;4.60;;;4.40;;
12038;SDS011;6080;48.818;9.526;2023-05-15T12:44:54;3.53;;;3.42;;
12038;SDS011;6080;48.818;9.526;2023-05-15T12:47:24;2.97;;;2.88;;
12038;SDS011;6080;48.818;9.526;2023-05-15T12:49:57;3.95;;;3.55;;
12038;SDS011;6080;48.818;9.526;2023-05-15T12:52:26;4.35;;;4.05;;
12038;SDS011;6080;48.818;9.526;2023-05-15T12:54:53;5.90;;;5.60;;
12038;SDS011;6080;48.818;9.526;2023-05-15T12:57:19;9.43;;;8.88;;
12038;SDS011;6080;48.818;9.526;2023-05-15T12:59:45;8.52;;;8.07;;
12038;SDS011;6080;48.818;9.526;2023-05-15T13:02:11;11.18;;;10.55;;
12038;SDS011;6080;48.818;9.526;2023-05-15T13:04:38;10.60;;;10.10;;
12038;SDS011;6080;48.818;9.526;2023-05-15T13:07:04;14.32;;;13.52;;
12038;SDS011;6080;48.818;9.526;2023-05-15T13:09:30;13.40;;;12.63;;
12038;SDS011;6080;48.818;9.526;2023-05-15T13:12:00;11.43;;;10.73;;
12038;SDS011;6080;48.818;9.526;2023-05-15T13:14:30;16.88;;;16.08;;
12038;SDS011;6080;48.818;9.526;2023-05-15T13:16:58;22.30;;;21.10;;
12038;SDS011;6080;48.818;9.526;2023-05-15T13:19:29;33.67;;;31.90;;
12038;SDS011;6080;48.818;9.526;2023-05-15T13:21:55;39.10;;;37.05;;
12038;SDS011;6080;48.818;9.526;2023-05-15T13:24:21;41.88;;;39.78;;
12038;SDS011;6080;48.818;9.526;2023-05-15T13:26:47;40.75;;;38.65;;
12038;SDS011;6080;48.818;9.526;2023-05-15T13:29:13;37.40;;;35.53;;
12038;SDS011;6080;48.818;9.526;2023-05-15T13:31:38;43.83;;;41.47;;
12038;SDS011;6080;48.818;9.526;2023-05-15T13:34:04;42.15;;;39.70;;
12038;SDS011;6080;48.818;9.526;2023-05-15T13:36:30;44.70;;;42.50;;
12038;SDS011;6080;48.818;9.526;2023-05-15T13:38:56;48.47;;;46.08;;
12038;SDS011;6080;48.818;9.526;2023-05-15T13:41:21;41.25;;;39.20;;
12038;SDS011;6080;48.818;9.526;2023-05-15T13:43:47;36.90;;;34.85;;
12038;SDS011;6080;48.818;9.526;2023-05-15T13:46:13;48.08;;;45.67;;
12038;SDS011;6080;48.818;9.526;2023-05-15T13:48:39;28.58;;;26.92;;
12038;SDS011;6080;48.818;9.526;2023-05-15T13:51:05;43.35;;;41.20;;
12038;SDS011;6080;48.818;9.526;2023-05-15T13:53:31;31.17;;;29.67;;
12038;SDS011;6080;48.818;9.526;2023-05-15T13:55:57;28.63;;;27.17;;
12038;SDS011;6080;48.818;9.526;2023-05-15T13:58:22;33.10;;;31.50;;
12038;SDS011;6080;48.818;9.526;2023-05-15T14:00:50;24.30;;;23.10;;
12038;SDS011;6080;48.818;9.526;2023-05-15T14:03:16;39.13;;;37.05;;
12038;SDS011;6080;48.818;9.526;2023-05-15T14:05:42;27.95;;;26.58;;
12038;SDS011;6080;48.818;9.526;2023-05-15T14:08:08;40.40;;;38.40;;
12038;SDS011;6080;48.818;9.526;2023-05-15T14:10:35;39.72;;;37.63;;
12038;SDS011;6080;48.818;9.526;2023-05-15T14:13:01;36.00;;;34.28;;
12038;SDS011;6080;48.818;9.526;2023-05-15T14:15:27;43.67;;;41.35;;
12038;SDS011;6080;48.818;9.526;2023-05-15T14:17:53;40.13;;;37.72;;
12038;SDS011;6080;48.818;9.526;2023-05-15T14:20:19;35.03;;;33.22;;
12038;SDS011;6080;48.818;9.526;2023-05-15T14:22:44;33.45;;;31.65;;
12038;SDS011;6080;48.818;9.526;2023-05-15T14:25:10;42.17;;;40.08;;
12038;SDS011;6080;48.818;9.526;2023-05-15T14:27:36;37.17;;;35.35;;
12038;SDS011;6080;48.818;9.526;2023-05-15T14:30:02;28.88;;;27.38;;
12038;SDS011;6080;48.818;9.526;2023-05-15T14:32:28;30.63;;;29.15;;
12038;SDS011;6080;48.818;9.526;2023-05-15T14:34:54;32.22;;;30.38;;
12038;SDS011;6080;48.818;9.526;2023-05-15T14:37:24;38.47;;;36.53;;
12038;SDS011;6080;48.818;9.526;2023-05-15T14:39:50;40.05;;;37.85;;
12038;SDS011;6080;48.818;9.526;2023-05-15T14:42:17;45.40;;;43.20;;
12038;SDS011;6080;48.818;9.526;2023-05-15T14:44:44;40.90;;;38.75;;
12038;SDS011;6080;48.818;9.526;2023-05-15T14:47:11;38.38;;;36.45;;
12038;SDS011;6080;48.818;9.526;2023-05-15T14:49:37;39.63;;;37.53;;
12038;SDS011;6080;48.818;9.526;2023-05-15T14:52:04;37.05;;;35.22;;
12038;SDS011;6080;48.818;9.526;2023-05-15T14:54:32;34.00;;;32.25;;
12038;SDS011;6080;48.818;9.526;2023-05-15T14:56:59;35.83;;;33.95;;
12038;SDS011;6080;48.818;9.526;2023-05-15T14:59:28;28.63;;;27.23;;
12038;SDS011;6080;48.818;9.526;2023-05-15T15:01:54;32.33;;;30.63;;
12038;SDS011;6080;48.818;9.526;2023-05-15T15:04:20;35.75;;;33.92;;
12038;SDS011;6080;48.818;9.526;2023-05-15T15:06:46;32.63;;;30.95;;
12038;SDS011;6080;48.818;9.526;2023-05-15T15:09:12;36.53;;;34.58;;
12038;SDS011;6080;48.818;9.526;2023-05-15T15:11:38;47.47;;;45.10;;
12038;SDS011;6080;48.818;9.526;2023-05-15T15:14:04;35.28;;;33.55;;
12038;SDS011;6080;48.818;9.526;2023-05-15T15:16:30;43.17;;;41.08;;
12038;SDS011;6080;48.818;9.526;2023-05-15T15:18:55;47.08;;;44.78;;
12038;SDS011;6080;48.818;9.526;2023-05-15T15:21:21;47.72;;;45.33;;
12038;SDS011;6080;48.818;9.526;2023-05-15T15:23:48;44.67;;;42.38;;
12038;SDS011;6080;48.818;9.526;2023-05-15T15:26:14;40.63;;;38.50;;
12038;SDS011;6080;48.818;9.526;2023-05-15T15:28:39;32.83;;;31.23;;
12038;SDS011;6080;48.818;9.526;2023-05-15T15:31:05;17.05;;;16.05;;
12038;SDS011;6080;48.818;9.526;2023-05-15T15:33:33;10.35;;;9.75;;
12038;SDS011;6080;48.818;9.526;2023-05-15T15:35:59;7.82;;;7.32;;
12038;SDS011;6080;48.818;9.526;2023-05-15T15:38:25;6.10;;;5.65;;
12038;SDS011;6080;48.818;9.526;2023-05-15T15:40:51;6.88;;;4.60;;
12038;SDS011;6080;48.818;9.526;2023-05-15T15:43:19;9.13;;;8.23;;
12038;SDS011;6080;48.818;9.526;2023-05-15T15:45:45;14.23;;;12.90;;
12038;SDS011;6080;48.818;9.526;2023-05-15T15:48:11;14.98;;;13.98;;
12038;SDS011;6080;48.818;9.526;2023-05-15T15:50:37;18.95;;;17.45;;
12038;SDS011;6080;48.818;9.526;2023-05-15T15:53:06;13.45;;;10.77;;
12038;SDS011;6080;48.818;9.526;2023-05-15T15:55:34;9.05;;;8.07;;
12038;SDS011;6080;48.818;9.526;2023-05-15T15:58:00;9.75;;;8.75;;
12038;SDS011;6080;48.818;9.526;2023-05-15T16:00:26;6.65;;;5.75;;
12038;SDS011;6080;48.818;9.526;2023-05-15T16:02:52;6.13;;;5.63;;
12038;SDS011;6080;48.818;9.526;2023-05-15T16:05:18;17.45;;;15.77;;
12038;SDS011;6080;48.818;9.526;2023-05-15T16:07:44;53.28;;;38.42;;
12038;SDS011;6080;48.818;9.526;2023-05-15T16:10:12;20.88;;;11.60;;
12038;SDS011;6080;48.818;9.526;2023-05-15T16:12:38;9.95;;;9.38;;
12038;SDS011;6080;48.818;9.526;2023-05-15T16:15:06;19.33;;;18.13;;
12038;SDS011;6080;48.818;9.526;2023-05-15T16:17:36;48.03;;;45.50;;
12038;SDS011;6080;48.818;9.526;2023-05-15T16:20:03;32.65;;;30.75;;
12038;SDS011;6080;48.818;9.526;2023-05-15T16:22:29;25.23;;;22.92;;
12038;SDS011;6080;48.818;9.526;2023-05-15T16:24:55;34.40;;;31.50;;
12038;SDS011;6080;48.818;9.526;2023-05-15T16:27:21;31.65;;;29.35;;
12038;SDS011;6080;48.818;9.526;2023-05-15T16:29:47;46.72;;;43.95;;
12038;SDS011;6080;48.818;9.526;2023-05-15T16:32:13;40.90;;;38.50;;
12038;SDS011;6080;48.818;9.526;2023-05-15T16:34:39;40.72;;;38.30;;
12038;SDS011;6080;48.818;9.526;2023-05-15T16:37:05;42.88;;;40.58;;
12038;SDS011;6080;48.818;9.526;2023-05-15T16:39:33;31.92;;;30.23;;
12038;SDS011;6080;48.818;9.526;2023-05-15T16:42:03;30.60;;;28.88;;
12038;SDS011;6080;48.818;9.526;2023-05-15T16:44:30;30.15;;;28.63;;
12038;SDS011;6080;48.818;9.526;2023-05-15T16:46:57;28.00;;;26.58;;
12038;SDS011;6080;48.818;9.526;2023-05-15T16:49:25;28.13;;;26.70;;
12038;SDS011;6080;48.818;9.526;2023-05-15T16:51:51;25.75;;;24.05;;
12038;SDS011;6080;48.818;9.526;2023-05-15T16:54:17;25.98;;;24.70;;
12038;SDS011;6080;48.818;9.526;2023-05-15T16:56:43;27.90;;;26.50;;
12038;SDS011;6080;48.818;9.526;2023-05-15T16:59:10;27.45;;;25.98;;
12038;SDS011;6080;48.818;9.526;2023-05-15T17:01:36;25.48;;;24.08;;
12038;SDS011;6080;48.818;9.526;2023-05-15T17:04:02;26.85;;;25.45;;
12038;SDS011;6080;48.818;9.526;2023-05-15T17:06:28;23.45;;;22.15;;
12038;SDS011;6080;48.818;9.526;2023-05-15T17:08:54;16.00;;;14.93;;
12038;SDS011;6080;48.818;9.526;2023-05-15T17:11:20;11.38;;;10.52;;
12038;SDS011;6080;48.818;9.526;2023-05-15T17:13:46;7.75;;;7.25;;
12038;SDS011;6080;48.818;9.526;2023-05-15T17:16:12;7.22;;;6.50;;
12038;SDS011;6080;48.818;9.526;2023-05-15T17:18:37;7.28;;;6.60;;
12038;SDS011;6080;48.818;9.526;2023-05-15T17:21:04;6.95;;;5.93;;
12038;SDS011;6080;48.818;9.526;2023-05-15T17:23:30;7.13;;;6.53;;
12038;SDS011;6080;48.818;9.526;2023-05-15T17:25:56;7.45;;;6.72;;
12038;SDS011;6080;48.818;9.526;2023-05-15T17:28:22;7.30;;;6.60;;
12038;SDS011;6080;48.818;9.526;2023-05-15T17:30:48;7.68;;;7.18;;
12038;SDS011;6080;48.818;9.526;2023-05-15T17:33:13;8.48;;;7.65;;
12038;SDS011;6080;48.818;9.526;2023-05-15T17:35:39;7.50;;;7.00;;
12038;SDS011;6080;48.818;9.526;2023-05-15T17:38:05;7.40;;;6.90;;
12038;SDS011;6080;48.818;9.526;2023-05-15T17:40:31;9.45;;;7.80;;
12038;SDS011;6080;48.818;9.526;2023-05-15T17:42:57;8.25;;;7.53;;
12038;SDS011;6080;48.818;9.526;2023-05-15T17:45:23;7.95;;;7.45;;
12038;SDS011;6080;48.818;9.526;2023-05-15T17:47:50;9.55;;;8.73;;
12038;SDS011;6080;48.818;9.526;2023-05-15T17:50:16;7.55;;;7.05;;
12038;SDS011;6080;48.818;9.526;2023-05-15T17:52:42;7.40;;;6.80;;
12038;SDS011;6080;48.818;9.526;2023-05-15T17:55:08;6.70;;;6.20;;
12038;SDS011;6080;48.818;9.526;2023-05-15T17:57:34;8.07;;;7.40;;
12038;SDS011;6080;48.818;9.526;2023-05-15T17:59:59;9.43;;;8.63;;
12038;SDS011;6080;48.818;9.526;2023-05-15T18:02:25;11.10;;;10.30;;
12038;SDS011;6080;48.818;9.526;2023-05-15T18:04:51;14.30;;;13.38;;